Time;durP1;ratioP1;P1;durP2;ratioP2;P2;SDS_P1;SDS_P2;PMS_P1;PMS_P2;Temp;Humidity;BMP_temperature;BMP_pressure;BME280_temperature;BME280_humidity;BME280_pressure;Samples;Min_cycle;Max_cycle;Signal;HPM_P1;HPM_P2
2021/09/15 00:00:51;;;;;;;12.82;10.13;;;24.00;72.60;;;;;;5095548;28;20024;-67
2021/09/15 00:03:17;;;;;;;15.10;10.75;;;24.10;72.70;;;;;;5095430;28;20127;-69
2021/09/15 00:05:42;;;;;;;15.35;11.55;;;24.10;72.90;;;;;;5095338;28;20463;-66
2021/09/15 00:08:08;;;;;;;15.50;10.68;;;24.00;72.70;;;;;;5095541;28;20504;-67
2021/09/15 00:10:34;;;;;;;15.60;10.23;;;24.00;72.70;;;;;;5095699;28;20024;-66
2021/09/15 00:12:59;;;;;;;16.40;10.02;;;24.00;72.60;;;;;;5095786;28;20039;-66
2021/09/15 00:15:25;;;;;;;19.95;10.35;;;24.00;72.10;;;;;;5094777;28;20093;-68
2021/09/15 00:17:51;;;;;;;14.13;9.63;;;24.00;72.10;;;;;;5095362;28;20063;-69
2021/09/15 00:20:17;;;;;;;14.25;9.68;;;24.00;72.20;;;;;;5094992;28;20458;-63
2021/09/15 00:22:42;;;;;;;14.40;9.40;;;24.00;71.60;;;;;;5095145;28;20028;-63
2021/09/15 00:25:08;;;;;;;13.68;9.85;;;24.00;71.20;;;;;;5094925;28;20091;-63
2021/09/15 00:27:34;;;;;;;20.88;9.38;;;24.00;70.60;;;;;;5095141;28;20473;-64
2021/09/15 00:30:00;;;;;;;12.02;9.95;;;24.00;70.20;;;;;;5095131;28;20082;-65
2021/09/15 00:32:26;;;;;;;17.48;9.82;;;23.90;69.70;;;;;;5094730;28;20140;-64
2021/09/15 00:34:53;;;;;;;11.98;9.75;;;23.90;69.50;;;;;;5093854;28;20086;-66
2021/09/15 00:37:18;;;;;;;15.05;9.20;;;23.80;69.70;;;;;;5095231;28;20063;-63
2021/09/15 00:39:44;;;;;;;14.95;8.93;;;23.80;68.50;;;;;;5095125;28;20056;-62
2021/09/15 00:42:10;;;;;;;16.80;9.38;;;23.80;67.80;;;;;;5094768;28;20029;-62
2021/09/15 00:44:37;;;;;;;13.35;9.00;;;23.90;67.50;;;;;;5076618;28;20028;-64
2021/09/15 00:47:03;;;;;;;13.68;7.93;;;23.90;66.90;;;;;;5094715;28;20032;-63
2021/09/15 00:49:29;;;;;;;13.50;8.13;;;23.80;65.90;;;;;;5094553;28;20024;-64
2021/09/15 00:51:54;;;;;;;17.30;8.38;;;23.70;65.10;;;;;;5094402;28;20020;-63
2021/09/15 00:54:20;;;;;;;15.73;8.68;;;23.70;64.70;;;;;;5094442;28;20043;-62
2021/09/15 00:56:46;;;;;;;16.42;8.32;;;23.70;64.10;;;;;;5094266;28;20020;-64
2021/09/15 00:59:12;;;;;;;16.55;8.45;;;23.70;63.90;;;;;;5094417;28;20480;-67
2021/09/15 01:01:38;;;;;;;12.88;7.30;;;23.70;64.10;;;;;;5094222;28;20035;-64
2021/09/15 01:04:06;;;;;;;14.60;8.55;;;23.60;63.10;;;;;;5094371;28;20355;-67
2021/09/15 01:06:34;;;;;;;14.50;8.77;;;23.60;63.00;;;;;;5094164;28;20149;-67
2021/09/15 01:09:01;;;;;;;15.95;8.80;;;23.60;62.70;;;;;;5094031;28;20074;-70
2021/09/15 01:11:28;;;;;;;11.25;8.20;;;23.50;62.30;;;;;;5094201;28;20028;-66
2021/09/15 01:13:54;;;;;;;18.35;8.45;;;23.50;62.00;;;;;;5093938;28;20123;-65
2021/09/15 01:16:20;;;;;;;15.77;8.32;;;23.50;62.00;;;;;;5075462;28;20140;-66
2021/09/15 01:18:47;;;;;;;12.85;8.43;;;23.50;62.00;;;;;;5094065;28;20452;-68
2021/09/15 01:21:13;;;;;;;14.88;8.43;;;23.50;61.60;;;;;;5093946;28;20539;-65
2021/09/15 01:23:38;;;;;;;16.63;9.13;;;23.50;61.30;;;;;;5093898;28;20109;-64
2021/09/15 01:26:04;;;;;;;15.80;9.73;;;23.50;60.90;;;;;;5093594;28;20381;-62
2021/09/15 01:28:30;;;;;;;15.27;10.93;;;23.40;60.40;;;;;;5093510;28;20035;-65
2021/09/15 01:30:56;;;;;;;19.08;10.75;;;23.40;60.20;;;;;;5093887;28;20024;-65
2021/09/15 01:33:22;;;;;;;17.40;11.95;;;23.40;59.80;;;;;;5093593;28;20067;-64
2021/09/15 01:35:48;;;;;;;14.15;9.60;;;23.50;59.60;;;;;;5093543;28;20063;-64
2021/09/15 01:38:14;;;;;;;12.35;9.35;;;23.50;59.10;;;;;;5093723;28;20024;-63
2021/09/15 01:40:40;;;;;;;15.18;8.65;;;23.40;58.30;;;;;;5093677;28;20020;-70
2021/09/15 01:43:07;;;;;;;15.30;8.80;;;23.40;58.10;;;;;;5093640;28;20024;-68
2021/09/15 01:45:33;;;;;;;15.95;8.40;;;23.40;58.10;;;;;;5093251;28;20020;-62
2021/09/15 01:47:58;;;;;;;16.27;8.98;;;23.40;57.60;;;;;;5093587;28;20491;-65
2021/09/15 01:50:24;;;;;;;12.25;7.50;;;23.30;57.50;;;;;;5093312;28;20067;-67
2021/09/15 01:52:50;;;;;;;14.30;7.90;;;23.20;57.50;;;;;;5093545;28;20377;-66
2021/09/15 01:55:29;;;;;;;11.15;7.68;;;23.20;57.30;;;;;;5093542;28;20358;-69
2021/09/15 01:57:55;;;;;;;16.35;7.55;;;23.10;56.80;;;;;;5093320;28;20024;-70
2021/09/15 02:00:21;;;;;;;12.85;7.15;;;23.10;57.10;;;;;;5093504;28;20031;-69
2021/09/15 02:02:50;;;;;;;11.82;7.15;;;23.10;57.00;;;;;;5093218;28;20036;-64
2021/09/15 02:05:17;;;;;;;12.60;7.47;;;23.10;56.70;;;;;;5093444;28;20020;-64
2021/09/15 02:07:43;;;;;;;10.65;6.90;;;23.10;56.60;;;;;;5093055;28;20028;-64
2021/09/15 02:10:09;;;;;;;11.60;7.25;;;23.20;56.50;;;;;;5093219;28;20031;-63
2021/09/15 02:12:35;;;;;;;15.27;7.07;;;23.20;56.20;;;;;;5093305;28;20052;-63
2021/09/15 02:15:01;;;;;;;12.77;8.20;;;23.20;56.30;;;;;;5093128;28;20031;-61
2021/09/15 02:17:27;;;;;;;10.00;7.10;;;23.20;56.10;;;;;;5092762;28;20132;-63
2021/09/15 02:19:52;;;;;;;13.25;6.80;;;23.10;55.80;;;;;;5093182;28;20024;-62
2021/09/15 02:22:18;;;;;;;11.20;6.93;;;23.00;55.80;;;;;;5092896;28;20454;-63
2021/09/15 02:24:44;;;;;;;10.02;6.82;;;23.00;55.80;;;;;;5093087;28;20059;-63
2021/09/15 02:27:09;;;;;;;15.60;6.97;;;22.90;55.80;;;;;;5093245;28;20048;-63
2021/09/15 02:29:36;;;;;;;8.77;6.60;;;22.90;55.70;;;;;;5092802;28;20055;-62
2021/09/15 02:32:02;;;;;;;11.43;6.88;;;22.80;55.60;;;;;;5093178;28;20028;-62
2021/09/15 02:34:28;;;;;;;10.95;6.82;;;22.80;55.50;;;;;;5092772;28;20035;-62
2021/09/15 02:36:53;;;;;;;10.57;7.05;;;22.80;55.40;;;;;;5092839;28;20070;-62
2021/09/15 02:39:19;;;;;;;8.73;6.50;;;22.80;55.10;;;;;;5096236;28;20031;-63
2021/09/15 02:41:45;;;;;;;13.73;6.90;;;22.70;55.50;;;;;;5097174;28;20038;-62
2021/09/15 02:44:10;;;;;;;11.73;7.03;;;22.70;55.50;;;;;;5096765;28;20040;-63
2021/09/15 02:46:36;;;;;;;12.60;7.25;;;22.70;55.50;;;;;;5078418;28;20016;-62
2021/09/15 02:49:02;;;;;;;12.50;7.25;;;22.70;55.50;;;;;;5096910;28;20032;-63
2021/09/15 02:51:27;;;;;;;10.02;6.80;;;22.60;55.40;;;;;;5097078;28;20021;-63
2021/09/15 02:53:53;;;;;;;11.57;6.60;;;22.70;55.80;;;;;;5096722;28;20024;-63
2021/09/15 02:56:19;;;;;;;10.95;7.05;;;22.60;55.80;;;;;;5096654;28;20027;-63
2021/09/15 02:58:44;;;;;;;10.27;6.80;;;22.70;55.90;;;;;;5097175;28;20038;-63
2021/09/15 03:01:10;;;;;;;10.05;7.25;;;22.60;55.80;;;;;;5096834;28;20095;-70
2021/09/15 03:03:36;;;;;;;13.13;6.68;;;22.60;55.80;;;;;;5096596;28;20028;-65
2021/09/15 03:06:02;;;;;;;12.88;7.03;;;22.70;55.80;;;;;;5096502;28;20402;-63
2021/09/15 03:08:28;;;;;;;14.57;6.82;;;22.60;55.70;;;;;;5096611;28;20024;-69
2021/09/15 03:10:53;;;;;;;13.60;6.82;;;22.60;55.90;;;;;;5096445;28;20034;-70
2021/09/15 03:13:19;;;;;;;12.10;6.65;;;22.60;55.90;;;;;;5096087;28;20032;-65
2021/09/15 03:15:45;;;;;;;10.85;6.35;;;22.60;55.80;;;;;;5096120;28;20210;-70
2021/09/15 03:18:11;;;;;;;11.05;6.70;;;22.70;55.90;;;;;;5096422;28;20035;-64
2021/09/15 03:20:37;;;;;;;12.65;6.95;;;22.70;56.30;;;;;;5096272;28;20020;-69
2021/09/15 03:23:03;;;;;;;10.82;6.75;;;22.70;55.50;;;;;;5096230;28;20036;-65
2021/09/15 03:25:29;;;;;;;9.70;6.30;;;22.80;55.80;;;;;;5095901;28;20071;-69
2021/09/15 03:27:55;;;;;;;10.70;6.93;;;22.80;55.80;;;;;;5095778;28;20453;-70
2021/09/15 03:30:20;;;;;;;10.95;6.75;;;22.70;55.70;;;;;;5096379;28;20028;-71
2021/09/15 03:32:46;;;;;;;12.18;6.13;;;22.70;55.60;;;;;;5095781;28;20094;-72
2021/09/15 03:35:12;;;;;;;7.70;5.95;;;22.70;55.60;;;;;;5095505;28;20500;-68
2021/09/15 03:37:38;;;;;;;10.15;6.43;;;22.80;55.50;;;;;;5095862;28;20024;-66
2021/09/15 03:40:05;;;;;;;10.93;7.28;;;22.70;55.30;;;;;;5095692;28;20016;-69
2021/09/15 03:42:30;;;;;;;8.85;6.88;;;22.80;55.20;;;;;;5095561;28;20039;-69
2021/09/15 03:44:56;;;;;;;9.75;6.00;;;22.80;55.10;;;;;;5095460;28;20373;-70
2021/09/15 03:47:22;;;;;;;10.75;7.38;;;22.90;55.10;;;;;;5095469;28;20016;-69
2021/09/15 03:49:47;;;;;;;10.82;6.13;;;22.80;54.80;;;;;;5094632;28;20488;-69
2021/09/15 03:52:13;;;;;;;10.73;6.47;;;22.80;54.80;;;;;;5095417;28;20038;-68
2021/09/15 03:54:39;;;;;;;10.10;6.15;;;22.90;55.10;;;;;;5095416;28;20051;-63
2021/09/15 03:57:05;;;;;;;15.43;6.63;;;22.80;54.90;;;;;;5095051;28;20028;-63
2021/09/15 03:59:31;;;;;;;10.82;6.07;;;22.80;55.40;;;;;;5094961;28;20347;-63
2021/09/15 04:01:56;;;;;;;9.57;6.50;;;22.70;55.10;;;;;;5095054;28;20016;-64
2021/09/15 04:04:22;;;;;;;8.85;6.65;;;22.70;55.10;;;;;;5095121;28;20036;-63
2021/09/15 04:06:48;;;;;;;12.82;8.20;;;22.60;55.10;;;;;;5094762;28;20047;-66
2021/09/15 04:09:13;;;;;;;10.70;6.88;;;22.70;55.10;;;;;;5095500;28;20056;-70
2021/09/15 04:11:39;;;;;;;11.48;6.95;;;22.70;54.80;;;;;;5094965;28;20024;-69
2021/09/15 04:14:05;;;;;;;10.05;6.40;;;22.70;55.50;;;;;;5095322;28;20016;-65
2021/09/15 04:16:30;;;;;;;12.90;7.00;;;22.70;54.70;;;;;;5095166;28;20048;-64
2021/09/15 04:18:56;;;;;;;11.07;6.72;;;22.70;54.60;;;;;;5094970;28;20143;-69
2021/09/15 04:21:22;;;;;;;9.73;6.25;;;22.70;54.80;;;;;;5095341;28;20020;-68
2021/09/15 04:31:59;;;;;;;12.15;7.43;;;22.60;54.40;;;;;;5094857;28;20435;-72
2021/09/15 04:34:25;;;;;;;16.23;7.60;;;22.60;54.30;;;;;;5094533;28;20087;-70
2021/09/15 04:36:51;;;;;;;10.05;7.00;;;22.70;54.90;;;;;;5094486;28;20028;-70
2021/09/15 04:39:16;;;;;;;10.73;7.32;;;22.70;54.60;;;;;;5094451;28;20024;-68
2021/09/15 04:41:42;;;;;;;10.45;7.55;;;22.70;54.30;;;;;;5094286;28;20118;-71
2021/09/15 04:44:08;;;;;;;9.68;7.38;;;22.60;54.10;;;;;;5094382;28;20089;-70
2021/09/15 04:46:33;;;;;;;14.95;7.63;;;22.60;54.40;;;;;;5094114;28;20031;-73
2021/09/15 04:48:59;;;;;;;11.13;7.38;;;22.60;54.60;;;;;;5094339;28;20488;-65
2021/09/15 04:51:25;;;;;;;10.75;7.22;;;22.50;54.30;;;;;;5094422;28;20474;-64
2021/09/15 04:53:51;;;;;;;12.15;7.32;;;22.40;54.30;;;;;;5094269;28;20024;-67
2021/09/15 04:56:16;;;;;;;12.23;7.35;;;22.40;54.90;;;;;;5094038;28;20024;-67
2021/09/15 04:58:42;;;;;;;11.27;6.93;;;22.50;55.10;;;;;;5093962;28;20095;-70
2021/09/15 05:01:07;;;;;;;14.70;6.70;;;22.50;55.50;;;;;;5093281;28;20058;-72
2021/09/15 05:03:33;;;;;;;10.10;6.40;;;22.50;54.60;;;;;;5093692;28;20036;-71
2021/09/15 05:05:59;;;;;;;13.27;6.63;;;22.40;54.60;;;;;;5093879;28;20048;-64
2021/09/15 05:08:25;;;;;;;12.93;6.22;;;22.40;54.70;;;;;;5094060;28;20024;-63
2021/09/15 05:10:50;;;;;;;11.25;6.50;;;22.40;54.70;;;;;;5094009;28;20024;-63
2021/09/15 05:13:16;;;;;;;14.05;6.35;;;22.50;54.50;;;;;;5094041;28;20024;-64
2021/09/15 05:15:42;;;;;;;11.73;6.93;;;22.50;54.30;;;;;;5093752;28;20557;-68
2021/09/15 05:18:08;;;;;;;12.93;6.85;;;22.60;54.20;;;;;;5094329;28;20032;-69
2021/09/15 05:20:33;;;;;;;13.45;7.15;;;22.70;54.00;;;;;;5094332;28;20036;-65
2021/09/15 05:22:59;;;;;;;14.30;6.72;;;22.60;53.50;;;;;;5093944;28;20462;-62
2021/09/15 05:25:25;;;;;;;13.57;6.78;;;22.60;53.40;;;;;;5096154;28;20020;-63
2021/09/15 05:27:52;;;;;;;15.30;6.70;;;22.60;53.60;;;;;;5101899;28;20028;-65
2021/09/15 05:30:18;;;;;;;11.80;6.35;;;22.60;53.70;;;;;;5096648;28;20028;-65
2021/09/15 05:32:44;;;;;;;12.82;7.35;;;22.60;53.70;;;;;;5093737;28;20027;-63
2021/09/15 05:35:11;;;;;;;13.00;6.30;;;22.60;53.60;;;;;;5082767;28;20021;-64
2021/09/15 05:37:38;;;;;;;11.80;7.05;;;22.60;53.60;;;;;;5073054;28;20064;-71
2021/09/15 05:40:06;;;;;;;16.17;6.57;;;22.60;53.80;;;;;;5073292;28;20470;-76
2021/09/15 05:42:31;;;;;;;13.70;6.80;;;22.60;53.70;;;;;;5073163;28;20029;-64
2021/09/15 05:45:03;;;;;;;11.32;6.53;;;22.70;53.80;;;;;;5072943;28;20039;-64
2021/09/15 05:47:30;;;;;;;13.27;6.70;;;22.70;53.80;;;;;;5078052;28;20458;-67
2021/09/15 05:49:59;;;;;;;12.02;6.40;;;22.70;53.70;;;;;;5067440;28;20552;-66
2021/09/15 05:52:25;;;;;;;12.95;6.60;;;22.60;53.40;;;;;;5091504;28;20026;-70
2021/09/15 05:54:51;;;;;;;9.45;6.55;;;22.60;54.20;;;;;;5093128;28;20055;-67
2021/09/15 05:57:17;;;;;;;10.98;6.97;;;22.60;53.70;;;;;;5093084;28;20051;-68
2021/09/15 05:59:43;;;;;;;17.05;7.50;;;22.60;53.50;;;;;;5079772;28;20032;-65
2021/09/15 06:02:08;;;;;;;12.18;6.88;;;22.60;53.30;;;;;;5072533;28;20036;-65
2021/09/15 06:04:34;;;;;;;15.77;7.35;;;22.60;53.40;;;;;;5072347;28;20037;-65
2021/09/15 06:07:00;;;;;;;13.82;7.18;;;22.60;53.40;;;;;;5072585;28;20047;-65
2021/09/15 06:09:26;;;;;;;17.70;6.85;;;22.50;53.50;;;;;;5077800;28;20024;-63
2021/09/15 06:11:51;;;;;;;18.08;7.80;;;22.60;53.30;;;;;;5080368;28;20485;-63
2021/09/15 06:14:17;;;;;;;16.45;7.70;;;22.60;53.20;;;;;;5092926;28;20081;-63
2021/09/15 06:16:43;;;;;;;15.93;7.53;;;22.60;53.20;;;;;;5092250;28;20052;-65
2021/09/15 06:19:09;;;;;;;20.25;7.97;;;22.60;53.40;;;;;;5092428;28;20017;-64
2021/09/15 06:21:34;;;;;;;18.23;7.22;;;22.60;54.00;;;;;;5092773;28;20028;-64
2021/09/15 06:24:00;;;;;;;17.70;7.88;;;22.60;53.50;;;;;;5092378;28;20081;-65
2021/09/15 06:26:26;;;;;;;16.20;7.45;;;22.60;53.50;;;;;;5092798;28;20020;-64
2021/09/15 06:28:52;;;;;;;19.60;7.65;;;22.60;53.70;;;;;;5092350;28;20477;-64
2021/09/15 06:31:19;;;;;;;13.30;7.32;;;22.60;53.60;;;;;;5092270;28;20024;-64
2021/09/15 06:33:46;;;;;;;14.18;8.20;;;22.70;53.60;;;;;;5092868;28;20059;-65
2021/09/15 06:36:12;;;;;;;15.02;8.35;;;22.80;53.90;;;;;;5092065;28;20020;-66
2021/09/15 06:38:40;;;;;;;20.85;8.00;;;22.90;53.50;;;;;;5092452;28;20111;-67
2021/09/15 06:41:06;;;;;;;18.13;8.45;;;22.90;53.40;;;;;;5090948;28;20089;-64
2021/09/15 06:43:31;;;;;;;20.63;8.93;;;23.10;53.30;;;;;;5074607;28;20032;-64
2021/09/15 06:45:57;;;;;;;19.67;8.68;;;23.20;53.00;;;;;;5071917;28;20099;-64
2021/09/15 06:48:23;;;;;;;18.85;8.50;;;23.40;52.60;;;;;;5072051;28;20028;-64
2021/09/15 06:50:48;;;;;;;23.70;9.00;;;23.60;52.40;;;;;;5071902;28;20092;-63
2021/09/15 06:53:14;;;;;;;15.18;8.15;;;23.70;52.00;;;;;;5071970;28;20028;-65
2021/09/15 06:55:40;;;;;;;15.88;7.45;;;23.80;51.80;;;;;;5071421;28;20025;-63
2021/09/15 06:58:05;;;;;;;21.77;8.68;;;23.80;51.50;;;;;;5053683;28;20059;-64
2021/09/15 07:00:31;;;;;;;18.77;8.52;;;23.90;51.60;;;;;;5071676;28;20024;-64
2021/09/15 07:02:57;;;;;;;25.08;8.32;;;23.90;51.40;;;;;;5071533;28;20430;-63
2021/09/15 07:05:23;;;;;;;13.38;8.75;;;24.00;51.20;;;;;;5071979;28;20041;-63
2021/09/15 07:07:49;;;;;;;15.43;8.15;;;24.10;50.60;;;;;;5071619;28;20021;-64
2021/09/15 07:10:17;;;;;;;21.88;8.38;;;24.20;50.70;;;;;;5071139;28;20066;-63
2021/09/15 07:12:44;;;;;;;25.35;8.82;;;24.30;50.60;;;;;;5071195;28;20053;-65
2021/09/15 07:15:10;;;;;;;16.38;8.73;;;24.30;50.10;;;;;;5071463;28;20474;-62
2021/09/15 07:17:36;;;;;;;24.60;8.40;;;24.40;50.30;;;;;;5071660;28;20490;-65
2021/09/15 07:20:03;;;;;;;19.73;8.63;;;24.40;50.20;;;;;;5071892;28;20036;-64
2021/09/15 07:22:29;;;;;;;19.63;8.75;;;24.40;50.10;;;;;;5071440;28;20021;-63
2021/09/15 07:24:55;;;;;;;14.93;8.27;;;24.50;50.20;;;;;;5072435;28;20102;-63
2021/09/15 07:27:20;;;;;;;18.25;7.72;;;24.50;49.70;;;;;;5076204;28;20485;-62
2021/09/15 07:29:46;;;;;;;13.60;7.88;;;24.60;49.70;;;;;;5074938;28;20419;-63
2021/09/15 07:32:12;;;;;;;19.60;8.13;;;24.70;49.90;;;;;;5075490;28;20060;-62
2021/09/15 07:34:41;;;;;;;16.60;8.05;;;24.80;49.50;;;;;;5074996;28;20060;-65
2021/09/15 07:37:07;;;;;;;20.58;9.77;;;24.90;49.30;;;;;;5075181;28;20363;-68
2021/09/15 07:39:33;;;;;;;13.30;8.73;;;24.90;48.90;;;;;;5075285;28;20477;-63
2021/09/15 07:41:58;;;;;;;16.35;8.30;;;24.90;49.30;;;;;;5075176;28;20040;-62
2021/09/15 07:44:24;;;;;;;13.63;8.02;;;24.90;48.90;;;;;;5075385;28;20062;-62
2021/09/15 07:46:50;;;;;;;17.85;8.40;;;25.00;48.70;;;;;;5075282;28;20059;-63
2021/09/15 07:49:15;;;;;;;14.70;9.02;;;25.10;48.50;;;;;;5074911;28;20032;-62
2021/09/15 07:51:41;;;;;;;17.90;7.78;;;25.20;48.40;;;;;;5075137;28;20021;-62
2021/09/15 07:54:07;;;;;;;17.83;8.25;;;25.20;48.70;;;;;;5075107;28;20091;-64
2021/09/15 07:56:33;;;;;;;20.58;7.90;;;25.30;48.30;;;;;;5074993;28;20025;-63
2021/09/15 07:58:58;;;;;;;13.45;7.80;;;25.30;48.10;;;;;;5074836;28;20580;-63
2021/09/15 08:01:25;;;;;;;14.70;7.72;;;25.30;48.00;;;;;;5074920;28;20103;-62
2021/09/15 08:03:52;;;;;;;18.05;8.27;;;25.30;47.80;;;;;;5074966;28;20122;-69
2021/09/15 08:06:18;;;;;;;18.85;8.65;;;25.40;47.80;;;;;;5074848;28;20099;-64
2021/09/15 08:08:44;;;;;;;19.17;8.60;;;25.50;47.80;;;;;;5074868;28;20032;-64
2021/09/15 08:11:10;;;;;;;14.23;8.45;;;25.50;47.70;;;;;;5075082;28;20027;-61
2021/09/15 08:13:36;;;;;;;14.43;8.50;;;25.60;47.60;;;;;;5075073;28;20032;-64
2021/09/15 08:16:02;;;;;;;17.45;8.60;;;25.60;47.60;;;;;;5074538;28;20067;-65
2021/09/15 08:18:28;;;;;;;17.05;8.85;;;25.70;47.80;;;;;;5074669;28;20465;-63
2021/09/15 08:20:54;;;;;;;21.27;8.77;;;25.70;47.30;;;;;;5074627;28;20012;-63
2021/09/15 08:23:20;;;;;;;20.10;7.68;;;25.70;47.60;;;;;;5074580;28;20101;-62
2021/09/15 08:25:47;;;;;;;16.58;7.60;;;25.80;47.50;;;;;;5074390;28;20499;-63
2021/09/15 08:28:13;;;;;;;13.27;8.27;;;25.90;47.30;;;;;;5074494;28;20158;-63
2021/09/15 08:30:39;;;;;;;13.98;7.57;;;25.90;47.60;;;;;;5074569;28;20052;-63
2021/09/15 08:33:05;;;;;;;13.52;8.45;;;26.00;47.50;;;;;;5074071;28;20469;-62
2021/09/15 08:35:31;;;;;;;16.70;7.18;;;26.10;47.60;;;;;;5074197;28;20039;-62
2021/09/15 08:37:57;;;;;;;16.67;8.00;;;26.00;47.30;;;;;;5074294;28;20028;-62
2021/09/15 08:40:23;;;;;;;17.27;7.93;;;26.10;47.30;;;;;;5074038;28;20033;-62
2021/09/15 08:42:49;;;;;;;16.70;8.43;;;26.10;47.30;;;;;;5073960;28;20024;-63
2021/09/15 08:45:14;;;;;;;17.85;8.00;;;26.10;47.30;;;;;;5073794;28;20408;-63
2021/09/15 08:47:47;;;;;;;16.70;8.02;;;26.10;47.20;;;;;;5074426;28;20017;-70
2021/09/15 08:50:15;;;;;;;16.70;8.75;;;26.20;48.20;;;;;;5074098;28;20028;-67
2021/09/15 08:52:41;;;;;;;17.30;8.85;;;26.20;47.30;;;;;;5074134;28;20025;-65
2021/09/15 08:55:08;;;;;;;18.58;8.63;;;26.20;47.30;;;;;;5055685;28;20044;-68
2021/09/15 08:57:34;;;;;;;20.85;8.07;;;26.30;47.30;;;;;;5073487;28;20096;-63
2021/09/15 09:00:00;;;;;;;17.33;8.30;;;26.30;47.10;;;;;;5073575;28;20096;-64
2021/09/15 09:02:33;;;;;;;22.33;9.80;;;26.30;47.20;;;;;;5073666;28;20025;-64
2021/09/15 09:05:03;;;;;;;17.10;8.70;;;26.40;47.10;;;;;;5073291;28;20478;-63
2021/09/15 09:07:30;;;;;;;15.75;8.13;;;26.40;47.20;;;;;;5073542;28;20032;-63
2021/09/15 09:09:59;;;;;;;16.50;8.13;;;26.50;47.00;;;;;;5073656;28;20106;-63
2021/09/15 09:12:31;;;;;;;22.05;9.07;;;26.50;46.90;;;;;;5073472;28;20109;-64
2021/09/15 09:15:15;;;;;;;20.35;8.52;;;26.50;46.80;;;;;;5073106;28;20117;-63
2021/09/15 09:17:41;;;;;;;19.48;8.65;;;26.60;46.60;;;;;;5073060;28;20362;-64
2021/09/15 09:20:35;;;;;;;13.90;8.35;;;26.60;46.60;;;;;;5073132;28;20020;-63
2021/09/15 09:23:01;;;;;;;;;;;26.80;46.60;;;;;;5073367;28;20028;-63
2021/09/15 09:25:32;;;;;;;16.13;7.28;;;26.80;46.40;;;;;;5073222;28;19927;-64
2021/09/15 09:27:58;;;;;;;15.15;7.90;;;26.90;46.80;;;;;;5073407;28;20028;-64
2021/09/15 09:30:39;;;;;;;11.65;7.47;;;27.00;46.40;;;;;;5073058;28;20355;-66
2021/09/15 09:33:06;;;;;;;13.65;7.93;;;27.10;46.30;;;;;;5073131;28;20028;-64
2021/09/15 09:35:42;;;;;;;16.42;8.48;;;27.10;46.20;;;;;;5072941;28;20020;-66
2021/09/15 09:38:39;;;;;;;14.30;7.32;;;27.20;45.90;;;;;;5072951;28;20024;-63
2021/09/15 09:41:14;;;;;;;12.38;7.63;;;27.30;45.40;;;;;;5071053;28;20098;-63
2021/09/15 09:43:53;;;;;;;12.68;6.97;;;27.40;45.30;;;;;;5073060;28;20037;-63
2021/09/15 09:46:28;;;;;;;15.35;7.63;;;27.40;45.60;;;;;;5072708;28;20099;-63
2021/09/15 09:48:59;;;;;;;15.43;7.68;;;27.40;45.70;;;;;;5072680;28;20513;-62
2021/09/15 09:51:31;;;;;;;18.83;7.85;;;27.50;44.70;;;;;;5055824;28;20029;-64
2021/09/15 09:54:08;;;;;;;16.58;7.00;;;27.60;45.30;;;;;;5074133;28;20474;-64
2021/09/15 09:56:36;;;;;;;13.02;6.90;;;27.60;44.30;;;;;;5072857;28;20032;-64
2021/09/15 09:59:04;;;;;;;17.52;6.47;;;27.70;45.50;;;;;;5055200;28;20020;-63
2021/09/15 10:01:32;;;;;;;19.55;7.60;;;27.80;45.40;;;;;;5072561;28;20138;-64
2021/09/15 10:04:00;;;;;;;14.18;6.70;;;27.80;45.30;;;;;;5072556;28;20119;-65
2021/09/15 10:06:27;;;;;;;15.85;6.95;;;27.90;45.30;;;;;;5072550;28;20016;-63
2021/09/15 10:08:54;;;;;;;12.52;7.10;;;27.90;45.20;;;;;;5072193;28;20108;-64
2021/09/15 10:11:21;;;;;;;16.48;6.85;;;27.90;45.10;;;;;;5072431;28;20039;-64
2021/09/15 10:13:47;;;;;;;19.98;7.28;;;28.00;45.00;;;;;;5072349;28;20373;-62
2021/09/15 10:16:14;;;;;;;17.88;7.05;;;28.00;45.20;;;;;;5072187;28;20458;-64
2021/09/15 10:18:41;;;;;;;15.30;7.55;;;28.10;45.10;;;;;;5072574;28;20043;-63
2021/09/15 10:21:07;;;;;;;14.93;7.45;;;28.20;45.50;;;;;;5073134;28;20112;-63
2021/09/15 10:23:48;;;;;;;15.50;6.35;;;28.30;45.10;;;;;;5072470;28;20039;-63
2021/09/15 10:26:35;;;;;;;10.70;6.25;;;28.30;45.00;;;;;;5054325;28;20032;-64
2021/09/15 10:29:28;;;;;;;11.55;6.00;;;28.40;44.80;;;;;;5072188;28;20054;-63
2021/09/15 10:31:56;;;;;;;12.33;5.83;;;28.40;43.70;;;;;;5072259;28;20399;-63
2021/09/15 10:34:40;;;;;;;11.18;5.93;;;28.40;45.10;;;;;;5072020;28;20036;-63
2021/09/15 10:37:05;;;;;;;;;;;28.50;44.90;;;;;;5072621;28;20028;-65
2021/09/15 10:39:31;;;;;;;11.30;6.18;;;28.50;44.10;;;;;;5072553;28;19904;-63
2021/09/15 10:41:58;;;;;;;11.68;5.30;;;28.60;44.80;;;;;;5072267;28;20023;-63
2021/09/15 10:44:24;;;;;;;13.75;5.28;;;28.60;44.80;;;;;;5072291;28;20036;-63
2021/09/15 10:47:16;;;;;;;9.73;5.18;;;28.60;45.00;;;;;;5072225;28;20052;-62
2021/09/15 10:49:42;;;;;;;8.15;5.63;;;28.70;43.00;;;;;;5072229;28;20031;-65
2021/09/15 10:52:11;;;;;;;8.98;5.40;;;28.70;45.20;;;;;;5053812;28;20021;-63
2021/09/15 10:54:46;;;;;;;8.20;4.90;;;28.70;43.40;;;;;;5071893;28;20025;-64
2021/09/15 10:57:28;;;;;;;10.73;4.57;;;28.70;42.90;;;;;;5072215;28;20039;-63
2021/09/15 11:00:15;;;;;;;9.38;3.70;;;28.80;42.30;;;;;;5074404;28;20033;-63
2021/09/15 11:02:43;;;;;;;12.50;5.30;;;29.00;41.80;;;;;;5075525;28;20032;-63
2021/09/15 11:05:27;;;;;;;9.10;4.30;;;29.00;44.30;;;;;;5075662;28;20104;-63
2021/09/15 11:07:59;;;;;;;7.68;4.32;;;29.10;43.40;;;;;;5075343;28;20380;-62
2021/09/15 11:10:33;;;;;;;13.18;5.07;;;29.20;41.60;;;;;;5075501;28;20048;-63
2021/09/15 11:13:04;;;;;;;8.85;5.30;;;29.30;43.50;;;;;;5075256;28;20032;-63
2021/09/15 11:15:38;;;;;;;12.52;4.57;;;29.30;45.10;;;;;;5075507;28;20055;-63
2021/09/15 11:18:05;;;;;;;6.85;4.57;;;29.30;41.80;;;;;;5057251;28;20040;-63
2021/09/15 11:20:35;;;;;;;11.48;4.50;;;29.30;43.70;;;;;;5075278;28;20032;-64
2021/09/15 11:23:09;;;;;;;8.60;4.93;;;29.40;43.80;;;;;;5075088;28;20029;-64
2021/09/15 11:25:35;;;;;;;10.23;4.88;;;29.50;40.70;;;;;;5075219;28;20024;-63
2021/09/15 11:28:09;;;;;;;7.03;4.70;;;29.40;43.10;;;;;;5075177;28;20191;-64
2021/09/15 11:30:41;;;;;;;12.57;4.95;;;29.50;41.70;;;;;;5075299;28;20500;-64
2021/09/15 11:33:07;;;;;;;11.30;4.07;;;29.50;43.60;;;;;;5057476;28;20059;-64
2021/09/15 11:35:35;;;;;;;11.13;4.60;;;29.50;42.70;;;;;;5075175;28;20036;-65
2021/09/15 11:38:01;;;;;;;8.80;3.97;;;29.50;43.10;;;;;;5075072;28;20028;-66
2021/09/15 11:40:29;;;;;;;10.30;3.90;;;29.60;43.90;;;;;;5075184;28;20099;-63
2021/09/15 11:42:55;;;;;;;8.70;3.97;;;29.70;43.20;;;;;;5075124;28;20028;-63
2021/09/15 11:45:23;;;;;;;12.77;4.25;;;29.80;42.80;;;;;;5075066;28;20119;-67
2021/09/15 11:47:53;;;;;;;11.00;4.00;;;29.90;43.10;;;;;;5074644;28;20020;-66
2021/09/15 11:50:20;;;;;;;9.25;3.83;;;30.00;42.80;;;;;;5074599;28;20039;-64
2021/09/15 11:52:51;;;;;;;12.85;4.38;;;30.00;42.40;;;;;;5075345;28;20422;-64
2021/09/15 11:55:18;;;;;;;11.50;4.28;;;30.00;43.20;;;;;;5074594;28;20016;-63
2021/09/15 11:57:45;;;;;;;10.00;4.43;;;30.10;43.40;;;;;;5074970;28;20025;-64
2021/09/15 12:00:11;;;;;;;24.75;6.47;;;30.10;44.10;;;;;;5075984;28;20024;-63
2021/09/15 12:02:40;;;;;;;10.57;5.22;;;30.10;44.20;;;;;;5074542;28;20043;-64
2021/09/15 12:05:07;;;;;;;7.15;4.57;;;30.20;45.90;;;;;;5074374;28;20051;-63
2021/09/15 12:07:33;;;;;;;11.40;5.25;;;30.20;45.40;;;;;;5074427;28;20027;-63
2021/09/15 12:09:59;;;;;;;10.38;4.60;;;30.20;46.40;;;;;;5074690;28;20032;-63
2021/09/15 12:12:28;;;;;;;12.65;5.13;;;30.20;46.90;;;;;;5073976;28;20068;-62
2021/09/15 12:14:58;;;;;;;7.55;4.88;;;30.20;47.50;;;;;;5074190;28;20063;-63
2021/09/15 12:17:24;;;;;;;11.07;5.03;;;30.20;47.40;;;;;;5074020;28;20055;-65
2021/09/15 12:19:55;;;;;;;12.63;5.55;;;30.20;48.10;;;;;;5074244;28;20070;-63
2021/09/15 12:22:31;;;;;;;11.63;5.55;;;30.30;48.30;;;;;;5074050;28;20035;-62
2021/09/15 12:25:09;;;;;;;9.02;4.57;;;30.30;48.80;;;;;;5073905;28;20454;-63
2021/09/15 12:27:36;;;;;;;14.00;5.28;;;30.40;47.40;;;;;;5055758;28;20028;-64
2021/09/15 12:30:02;;;;;;;8.95;4.68;;;30.40;48.90;;;;;;5073712;28;20064;-63
2021/09/15 12:32:30;;;;;;;19.00;5.53;;;30.30;48.30;;;;;;5074041;28;20060;-63
2021/09/15 12:34:56;;;;;;;11.63;4.55;;;30.30;48.50;;;;;;5056026;28;20107;-63
2021/09/15 12:37:22;;;;;;;10.57;4.45;;;30.30;47.90;;;;;;5073995;28;20055;-66
2021/09/15 12:39:55;;;;;;;7.97;4.57;;;30.20;47.60;;;;;;5073849;28;20024;-64
2021/09/15 12:42:24;;;;;;;;;;;30.20;47.20;;;;;;5074451;28;20036;-64
2021/09/15 12:45:08;;;;;;;7.97;4.22;;;30.30;46.30;;;;;;5073699;28;20361;-64
2021/09/15 12:47:39;;;;;;;8.95;3.85;;;30.30;44.30;;;;;;5073648;28;20103;-64